Weather observations for the past three days for
Martin County Airport
Metric (Imperial)
Date Time (edt) Wind (kph) Vis. (km) Weather Sky Cond. Temperature (ºC) Relative Humidity Wind Chill (°C) Heat Index (°C) Pressure Precipitation (cm)
Air Dwpt 6 hour altimeter (cm) sea level (mb) 1 hr 3 hr 6 hr
Max. Min.
06 05:15 S 7 16.09 Fair CLR 15.2 13.9 92% 76.15 0.0
06 04:55 S 7 16.09 Fair CLR 15.1 13.7 91% 76.17 0.0
06 04:35 S 7 16.09 Fair CLR 15.1 13.5 90% 76.17 0.0
06 04:15 S 6 16.09 Fair CLR 14.8 13.4 91% 76.2 0.0
06 03:55 S 7 16.09 Fair CLR 14.7 13 90% 76.17 0.0
06 03:35 S 7 16.09 Fair CLR 15.3 13.2 87% 76.17 0.0
06 03:15 S 7 16.09 Fair CLR 15.6 13.2 86% 76.17 0.0
06 02:55 S 9 16.09 Fair CLR 15.7 13.2 85% 76.17 0.0
06 02:35 S 11 16.09 Fair CLR 15.7 13.2 85% 76.17 0.0
06 02:15 S 9 16.09 Fair CLR 15.6 13.2 86% 76.17 0.0
06 01:55 S 9 16.09 Fair CLR 15.7 13.2 21.4 15.6 85% 76.23 0.0
06 01:35 S 9 16.09 Fair CLR 15.9 13.1 84% 76.23 0.0
06 01:15 S 9 16.09 Fair CLR 16.2 13.1 82% 76.25 0.0
06 00:55 S 9 16.09 Fair CLR 16.5 13.2 81% 76.28 0.0
06 00:35 S 11 16.09 Fair CLR 16.7 13.2 80% 76.28 0.0
06 00:15 S 11 16.09 Fair CLR 17 13.2 78% 76.28 0.0
05 23:55 S 13 16.09 Fair CLR 17 13.1 78% 76.3 0.0
05 23:35 S 13 16.09 Fair CLR 17.4 13.1 76% 76.28 0.0
05 23:15 S 11 16.09 Fair CLR 17.7 13.1 75% 76.28 0.0
05 22:55 S 11 16.09 Fair CLR 17.8 13.1 74% 76.28 0.0
05 22:35 S 11 16.09 Fair CLR 18.2 13.2 73% 76.28 0.0
05 22:15 S 13 G 26 16.09 Fair CLR 18.8 13.3 71% 76.28 0.0
05 21:55 S 15 G 30 16.09 Fair CLR 19 13.4 70% 76.25 0.0
05 21:35 S 15 16.09 Fair CLR 19.3 13.4 69% 76.25 0.0
05 21:15 S 13 16.09 Fair CLR 19.7 13.5 68% 76.23 0.0
05 20:55 S 9 16.09 Fair CLR 19.8 13.5 67% 76.23 0.0
05 20:35 S 13 16.09 Fair CLR 20.3 13.8 66% 76.2 0.0
05 20:15 S 9 16.09 Fair CLR 20.9 13.9 64% 76.2 0.0
05 19:55 S 13 16.09 Fair CLR 21.4 13.8 28.1 21.3 62% 76.2 0.0
05 19:35 S 15 G 31 16.09 Fair CLR 22.2 13.7 59% 76.17 0.0
05 19:15 S 19 G 30 16.09 Fair CLR 22.7 13.5 56% 76.15 0.0
05 18:55 S 19 G 28 16.09 Fair CLR 23.6 13.1 52% 76.15 0.0
05 18:35 S 11 16.09 Fair CLR 24 12.9 50% 25 76.15 0.0
05 18:15 S 15 G 35 16.09 Fair CLR 25.1 12.8 46% 26 76.15 0.0
05 17:55 S 24 G 39 16.09 Fair CLR 25.7 13.2 46% 26 76.15 0.0
05 17:35 S 13 16.09 Fair CLR 25.6 13.5 47% 26 76.15 0.0
05 17:15 S 13 G 33 16.09 Partly Cloudy SCT060 26.1 13.5 46% 26 76.12 0.0
05 16:55 S 13 G 28 16.09 Partly Cloudy SCT060 25.9 13.2 45% 26 76.15 0.0
05 16:35 S 17 G 28 16.09 Partly Cloudy SCT060 26.5 12.8 43% 27 76.12 0.0
05 16:15 SW 26 G 39 16.09 Partly Cloudy SCT060 27.8 12.4 39% 27 76.15 0.0
05 15:55 S 20 G 30 16.09 Partly Cloudy SCT060 27.2 12.1 39% 27 76.15 0.0
05 15:35 SW 15 G 26 16.09 Partly Cloudy SCT060 27.6 12.3 39% 27 76.2 0.0
05 15:15 S 24 G 33 16.09 Fair CLR 27.5 12.3 39% 27 76.23 0.0
05 14:55 S 20 G 31 16.09 Partly Cloudy SCT060 27.1 12 39% 27 76.25 0.0
05 14:35 S 19 G 26 16.09 Partly Cloudy SCT060 26.7 12.2 41% 27 76.25 0.0
05 14:15 S 19 16.09 Fair CLR 26.6 12 40% 27 76.28 0.0
05 13:55 SW 20 16.09 Fair CLR 26.4 12.1 26.9 15 41% 26 76.28 0.0
05 13:35 SW 17 G 28 16.09 Fair CLR 26 11.9 41% 26 76.3 0.0
05 12:55 SW 19 G 30 16.09 Fair CLR 25.7 12.7 45% 26 76.33 0.0
05 12:35 S 22 16.09 Fair CLR 25.7 12.7 45% 26 76.33 0.0
05 12:15 S 24 G 33 16.09 Fair CLR 25.1 12.6 46% 26 76.35 0.0
05 11:55 SW 17 16.09 Fair CLR 24.6 13.3 49% 26 76.35 0.0
05 11:35 S 22 16.09 Fair CLR 24.7 13.5 50% 26 76.38 0.0
05 11:15 SW 24 G 31 16.09 Fair CLR 23.5 13 52% 76.38 0.0
05 10:55 SW 20 G 28 16.09 Fair CLR 23.2 13.3 54% 76.38 0.0
05 10:35 SW 19 G 35 16.09 Fair CLR 22.6 12.9 54% 76.35 0.0
05 10:15 SW 20 G 33 16.09 Fair CLR 22.2 13.2 57% 76.35 0.0
05 09:55 SW 20 16.09 Fair CLR 21.4 12.8 58% 76.38 0.0
05 09:35 SW 19 G 28 16.09 Fair CLR 20.6 13 62% 76.38 0.0
05 09:15 SW 20 16.09 Fair CLR 19.5 13 66% 76.38 0.0
05 08:35 SW 19 16.09 Fair CLR 17.7 12.4 71% 76.38 0.0
05 08:15 SW 13 16.09 Fair CLR 16.3 12.4 78% 76.38 0.0
05 07:55 S 13 16.09 Fair CLR 14.8 12 15.5 11 83% 76.38 0.0
05 07:35 S 7 16.09 Fair CLR 13.7 11.5 87% 76.35 0.0
05 07:15 S 7 16.09 Fair CLR 12.9 11 88% 76.35 0.0
05 06:55 S 9 16.09 Fair CLR 12.1 10.7 91% 76.33 0.0
05 06:35 S 7 16.09 Fair CLR 11.4 10.2 92% 76.3 0.0
05 06:15 S 7 16.09 Fair CLR 11.5 10 91% 76.3 0.0
05 05:55 S 7 16.09 Fair CLR 12 10.1 88% 76.28 0.0
05 05:35 S 7 16.09 Fair CLR 12.1 10.1 88% 76.28 0.0
05 05:15 S 7 16.09 Fair CLR 12 10 88% 76.28 0.0
05 04:55 S 6 16.09 Fair CLR 12.1 9.8 86% 76.25 0.0
05 04:35 S 6 16.09 Fair CLR 12.3 9.8 85% 76.25 0.0
05 04:15 S 7 16.09 Fair CLR 11.8 9.7 87% 76.25 0.0
05 03:55 S 7 16.09 Fair CLR 12.4 9.7 84% 76.23 0.0
05 03:35 Calm 16.09 Fair CLR 12.3 9.7 84% 76.23 0.0
05 03:15 Calm 16.09 Fair CLR 12.5 9.8 84% 76.23 0.0
05 02:55 S 6 16.09 Fair CLR 13.4 9.9 80% 76.23 0.0
05 02:35 S 6 16.09 Fair CLR 14.9 9.9 72% 76.23 0.0
05 02:15 S 11 16.09 Fair CLR 15 10 72% 76.23 0.0
05 01:55 S 13 16.09 Fair CLR 15.3 10 20.1 15 71% 76.23 0.0
05 01:35 S 13 16.09 Fair CLR 15.6 10 70% 76.25 0.0
05 01:15 S 11 16.09 Fair CLR 15.8 9.9 68% 76.25 0.0
05 00:55 S 15 16.09 Fair CLR 15.7 10 69% 76.25 0.0
05 00:35 S 7 16.09 Fair CLR 16 9.9 67% 76.25 0.0
05 00:15 S 11 16.09 Fair CLR 16.3 10 66% 76.25 0.0
04 23:55 S 13 16.09 Fair CLR 16.5 10 66% 76.25 0.0
04 23:35 S 13 16.09 Fair CLR 16.4 10 66% 76.25 0.0
04 23:15 S 11 16.09 Fair CLR 16.8 10 64% 76.25 0.0
04 22:55 S 15 16.09 Fair CLR 17.1 10.1 64% 76.25 0.0
04 22:35 S 17 G 28 16.09 Fair CLR 17.3 10.2 63% 76.25 0.0
04 22:15 S 13 16.09 Fair CLR 17.5 10.1 62% 76.23 0.0
04 21:55 S 13 16.09 Fair CLR 17.8 10 60% 76.23 0.0
04 21:35 S 17 G 26 16.09 Fair CLR 18.4 9.8 57% 76.2 0.0
04 21:15 S 17 G 26 16.09 Fair CLR 18.4 9.8 57% 76.17 0.0
04 20:55 S 15 16.09 Fair CLR 18.8 9.8 56% 76.17 0.0
04 20:35 S 15 16.09 Fair CLR 19.1 10.3 57% 76.15 0.0
04 20:15 S 13 16.09 Fair CLR 19.7 10.6 56% 76.15 0.0
04 19:55 S 15 16.09 Fair CLR 20.2 11.2 26.2 20.1 56% 76.12 0.0
04 19:35 S 19 16.09 Fair CLR 21.1 11.3 54% 76.1 0.0
04 19:15 S 22 16.09 Fair CLR 22 11.7 52% 76.07 0.0
04 18:55 S 26 G 33 16.09 Fair CLR 22.8 11.8 50% 76.07 0.0
04 18:35 S 17 16.09 Fair CLR 24.7 7 32% 25 76.05 0.0
04 18:15 SW 17 16.09 Fair CLR 25.1 6.9 31% 25 76.05 0.0
04 17:55 SW 20 G 31 16.09 Fair CLR 25.4 6.9 31% 26 76.05 0.0
04 17:35 SW 22 G 31 16.09 Fair CLR 25.6 7.2 31% 26 76.07 0.0
04 17:15 SW 24 16.09 Fair CLR 25.8 7 30% 26 76.07 0.0
04 16:55 SW 26 16.09 Fair CLR 25.9 7.1 30% 26 76.07 0.0
04 16:35 SW 22 G 33 16.09 Fair CLR 25.9 6.9 30% 26 76.07 0.0
04 16:15 SW 26 G 35 16.09 Fair CLR 25.8 6.6 29% 26 76.1 0.0
04 15:55 S 20 G 39 16.09 Fair CLR 25.8 6.4 29% 26 76.1 0.0
04 15:35 SW 24 G 41 16.09 Fair CLR 25.7 6.3 29% 26 76.1 0.0
04 15:15 SW 28 G 35 16.09 Fair CLR 25.8 7.2 31% 26 76.12 0.0
04 14:55 SW 22 G 31 16.09 Fair CLR 25.3 7.3 32% 26 76.15 0.0
04 14:35 SW 31 G 39 16.09 Fair CLR 25.3 7.3 32% 26 76.15 0.0
04 14:15 SW 20 G 31 16.09 Fair CLR 24.6 7.8 34% 25 76.17 0.0
04 13:55 SW 26 16.09 Fair CLR 25 7.7 25.4 12.3 33% 25 76.2 0.0
04 13:35 SW 26 16.09 Fair CLR 24.5 8.2 35% 25 76.23 0.0
04 13:15 SW 24 16.09 Fair CLR 24.2 8.7 37% 25 76.25 0.0
04 12:55 SW 20 G 30 16.09 Fair CLR 23.6 8.2 37% 76.25 0.0
04 12:35 SW 17 16.09 Fair CLR 23.5 9.2 40% 76.25 0.0
04 12:15 SW 20 16.09 Fair CLR 22.9 8.8 41% 76.28 0.0
04 11:55 SW 17 G 30 16.09 Fair CLR 22.7 9.5 43% 76.28 0.0
04 11:35 SW 22 16.09 Fair CLR 22.2 9.8 45% 76.3 0.0
04 11:15 SW 20 16.09 Fair CLR 22 10.2 47% 76.33 0.0
04 10:55 SW 19 G 28 16.09 Fair CLR 20.9 10.3 51% 76.33 0.0
04 10:35 SW 17 G 28 16.09 Fair CLR 20.2 10.6 54% 76.33 0.0
04 10:15 SW 19 G 28 16.09 Fair CLR 19.7 10.8 57% 76.33 0.0
04 09:55 SW 20 16.09 Fair CLR 19 11.1 60% 76.33 0.0
04 09:35 SW 17 16.09 Fair CLR 18.1 11.1 64% 76.33 0.0
04 09:15 SW 17 16.09 Fair CLR 16.7 10.9 69% 76.35 0.0
04 08:55 SW 17 0.00 Fair CLR 15.5 10.8 74% 76.35 0.0
04 08:35 SW 11 16.09 Fair CLR 13.7 10.3 80% 76.38 0.0
04 08:15 SW 13 0.00 NULL NULL 12.6 9.9 84% 76.38 0.0
04 08:00 S 11 0.00 NULL NULL 0 0 0% 76.38 0.0
04 07:35 S 11 16.09 Fair CLR 9.9 8.5 91% 9 76.38 0.0
04 07:15 S 7 16.09 Fair CLR 8.9 7.8 93% 8 76.38 0.0
04 06:55 S 6 16.09 Fair CLR 8.1 7.2 94% 76.38 0.0
04 06:35 S 7 16.09 Fair CLR 7.5 6.6 94% 6 76.38 0.0
04 06:15 S 7 16.09 Fair CLR 7.8 6.7 93% 7 76.38 0.0
04 05:55 S 9 16.09 Fair CLR 8 6.7 92% 7 76.35 0.0
04 05:35 S 6 16.09 Fair CLR 7.3 6.2 93% 76.38 0.0
04 05:15 S 6 16.09 Fair CLR 6.2 5.3 94% 76.38 0.0
04 04:55 S 6 16.09 Partly Cloudy SCT120 6.1 5.1 93% 76.38 0.0
04 04:35 S 6 16.09 Partly Cloudy SCT120 5.6 4.7 94% 76.38 0.0
04 04:15 S 6 16.09 Fair CLR 6.1 5.1 93% 76.38 0.0
04 03:55 Calm 16.09 Fair CLR 4.9 4.1 95% 76.38 0.0
04 03:35 Calm 16.09 Fair CLR 4.6 4 96% 76.38 0.0
04 03:15 Calm 16.09 Fair CLR 4.7 3.9 95% 76.4 0.0
04 02:55 Calm 16.09 Fair CLR 4.4 3.9 97% 76.38 0.0
04 02:35 Calm 16.09 Fair CLR 4.6 4.1 97% 76.38 0.0
04 02:15 Calm 16.09 Fair CLR 5 4.5 97% 76.38 0.0
04 01:55 Calm 16.09 Fair CLR 5.1 4.5 12.2 4.5 96% 76.38 0.0
04 01:35 Calm 16.09 Fair CLR 5.1 4.2 94% 76.4 0.0
04 01:15 SE 6 16.09 Fair CLR 5.3 4.4 94% 76.4 0.0
04 00:35 Calm 16.09 Fair CLR 5 4.4 96% 76.4 0.0
04 00:15 Calm 16.09 Fair CLR 5.1 4.5 96% 76.4 0.0
03 23:55 Calm 16.09 Fair CLR 5.3 4.8 97% 76.38 0.0
03 23:35 E 6 16.09 Fair CLR 6.3 5.6 95% 76.38 0.0
03 23:15 Calm 16.09 Fair CLR 5.8 5.3 97% 76.4 0.0
03 22:55 Calm 16.09 Fair CLR 6.7 5.7 93% 76.4 0.0
03 22:35 Calm 16.09 Fair CLR 7 6.5 97% 76.4 0.0
03 22:15 Calm 16.09 Fair CLR 7.6 6.7 94% 76.4 0.0
03 21:55 Calm 16.09 Fair CLR 7.7 6.4 92% 76.38 0.0
03 21:35 Calm 16.09 Fair CLR 8 6.4 90% 76.38 0.0
03 21:15 Calm 16.09 Fair CLR 8.7 6.1 84% 76.35 0.0
03 20:55 Calm 16.09 Fair CLR 9.8 6.6 81% 76.33 0.0
03 20:35 Calm 16.09 Fair CLR 9.9 6.3 79% 76.3 0.0
03 20:15 Calm 16.09 Fair CLR 11.5 5.1 65% 76.3 0.0
03 19:55 Calm 16.09 Fair CLR 12.7 4.3 18.7 12.3 57% 76.28 0.0
03 19:35 Calm 16.09 Fair CLR 13.9 7 63% 76.28 0.0
03 19:15 W 6 16.09 Fair CLR 16.4 2.1 38% 76.28 0.0
03 18:55 NW 7 16.09 Fair CLR 17 1.2 35% 76.25 0.0
03 18:35 W 11 16.09 Fair CLR 17.5 0.5 32% 76.25 0.0
03 18:15 NW 11 16.09 Fair CLR 17.8 0.4 31% 76.25 0.0
03 17:55 NW 11 16.09 Fair CLR 18 0.4 31% 76.25 0.0
03 17:35 W 15 16.09 Fair CLR 18.2 0.9 31% 76.25 0.0
03 17:15 W 13 16.09 Fair CLR 18.1 0.7 31% 76.25 0.0
03 16:55 W 15 16.09 Fair CLR 17.9 0.5 31% 76.25 0.0
03 16:35 W 15 16.09 Fair CLR 18.5 1.5 32% 76.25 0.0
03 16:15 NW 11 16.09 Fair CLR 18 1.1 32% 76.25 0.0
03 15:55 W 17 16.09 Fair CLR 18 0.7 31% 76.28 0.0
03 15:35 W 19 G 28 16.09 Fair CLR 18.1 1.1 32% 76.3 0.0
03 15:15 W 17 G 28 16.09 Fair CLR 17.6 0.9 33% 76.3 0.0
03 14:55 NW 17 G 28 16.09 Fair CLR 17.2 1.2 34% 76.33 0.0
03 14:35 NW 13 G 28 16.09 Fair CLR 17.1 1.3 35% 76.35 0.0
03 14:15 NW 17 16.09 Fair CLR 17 2 37% 76.35 0.0
03 13:55 W 17 G 30 16.09 Fair CLR 16.8 2.2 17.2 8.1 38% 76.35 0.0
03 13:35 W 17 G 26 16.09 Fair CLR 16.4 2.4 39% 76.38 0.0
03 13:15 NW 13 G 28 16.09 Fair CLR 16 1.1 37% 76.38 0.0
03 12:55 NW 19 16.09 Fair CLR 16.4 2.3 39% 76.38 0.0
03 12:35 NW 19 G 33 16.09 Fair CLR 15.5 1.8 40% 76.4 0.0
03 12:15 W 17 16.09 Partly Cloudy SCT050 15.1 2.1 42% 76.43 0.0
03 11:55 NW 19 16.09 Fair CLR 15.5 3.7 46% 76.43 0.0
03 11:35 NW 20 16.09 Partly Cloudy SCT048 15.2 3.3 45% 76.43 0.0
03 11:15 NW 13 16.09 Partly Cloudy SCT046 13.7 2.9 48% 76.43 0.0
03 10:55 NW 15 16.09 Partly Cloudy SCT041 SCT047 13.9 3.2 49% 76.43 0.0
03 10:35 NW 11 16.09 Fair CLR 13.6 4.5 54% 76.43 0.0
03 10:15 NW 13 16.09 Fair CLR 13 4.5 57% 76.43 0.0
03 09:55 NW 9 16.09 Fair CLR 12.7 5.8 63% 76.43 0.0
03 09:35 NW 7 16.09 Fair CLR 12.1 6.6 69% 76.43 0.0
03 09:15 NW 11 16.09 Fair CLR 11.2 6.2 72% 76.4 0.0
03 08:55 N 11 16.09 Partly Cloudy SCT065 10.5 6.5 77% 76.43 0.0
03 08:35 NW 9 16.09 Partly Cloudy SCT065 9.6 6.6 82% 9 76.43 0.0
03 08:15 NW 6 16.09 Fair CLR 8.7 6.2 84% 76.38 0.0
03 07:55 NW 7 16.09 Fair CLR 8 6.2 8.7 5.2 89% 7 76.35 0.0
03 07:35 NW 11 16.09 Partly Cloudy SCT060 7.4 5.6 88% 6 76.33 0.0
03 07:15 NW 7 16.09 Mostly Cloudy BKN060 BKN070 6.5 5.1 91% 5 76.33 0.0
03 06:55 NW 7 16.09 Mostly Cloudy BKN060 BKN070 6.3 5.1 92% 5 76.3 0.0
03 06:35 NW 9 16.09 Fair CLR 5.3 4.4 94% 3 76.25 0.0
03 06:15 W 9 16.09 Fair CLR 5.5 4.3 92% 4 76.23 0.0
03 05:55 W 9 16.09 Fair CLR 6 4.4 90% 4 76.17 0.0
03 05:35 W 9 16.09 Fair CLR 5.9 4.8 93% 4 76.17 0.0
Date Time (edt) Wind (kph) Vis. (km) Weather Sky Cond. Air Dwpt Max. Min. Relative Humidity Wind Chill (°C) Heat Index (°C) altimeter (cm) sea level (mb) 1 hr 3 hr 6 hr
6 hour
Temperature (ºC) Pressure Precipitation (cm)